createdAt,value
2023-04-25T00:00:33.759Z,1.67
2023-04-25T00:03:04.223Z,1.90
2023-04-25T00:05:32.937Z,1.60
2023-04-25T00:08:01.315Z,1.90
2023-04-25T00:10:29.755Z,2.03
2023-04-25T00:12:58.668Z,2.13
2023-04-25T00:15:27.085Z,1.70
2023-04-25T00:17:55.602Z,2.10
2023-04-25T00:20:25.998Z,1.83
2023-04-25T00:22:54.834Z,2.30
2023-04-25T00:25:23.495Z,1.90
2023-04-25T00:27:51.904Z,2.43
2023-04-25T00:30:20.461Z,2.37
2023-04-25T00:32:49.932Z,2.30
2023-04-25T00:35:18.527Z,1.87
2023-04-25T00:37:48.453Z,1.90
2023-04-25T00:40:16.920Z,2.27
2023-04-25T00:42:45.254Z,1.77
2023-04-25T00:45:16.014Z,2.07
2023-04-25T00:47:44.661Z,2.33
2023-04-25T00:50:13.172Z,3.10
2023-04-25T00:52:42.677Z,2.03
2023-04-25T00:55:13.432Z,2.30
2023-04-25T00:57:42.020Z,1.90
2023-04-25T01:00:12.056Z,2.20
2023-04-25T01:02:40.660Z,2.27
2023-04-25T01:05:09.827Z,2.37
2023-04-25T01:07:38.287Z,2.50
2023-04-25T01:10:07.177Z,2.60
2023-04-25T01:12:37.288Z,2.50
2023-04-25T01:15:05.989Z,2.03
2023-04-25T01:17:34.506Z,2.20
2023-04-25T01:22:34.776Z,2.40
2023-04-25T01:25:03.278Z,2.10
2023-04-25T01:27:32.036Z,1.70
2023-04-25T01:30:00.469Z,2.40
2023-04-25T01:32:29.443Z,2.10
2023-04-25T01:34:57.882Z,1.90
2023-04-25T01:37:26.312Z,2.20
2023-04-25T01:39:56.490Z,2.20
2023-04-25T01:42:24.913Z,2.10
2023-04-25T01:44:53.190Z,2.00
2023-04-25T01:47:21.828Z,1.60
2023-04-25T01:49:50.407Z,2.00
2023-04-25T01:52:18.836Z,2.00
2023-04-25T01:54:47.411Z,1.97
2023-04-25T01:57:17.266Z,2.33
2023-04-25T01:59:46.104Z,2.30
2023-04-25T02:02:14.667Z,2.20
2023-04-25T02:04:43.286Z,1.80
2023-04-25T02:07:11.774Z,2.10
2023-04-25T02:09:40.159Z,2.07
2023-04-25T02:12:08.848Z,2.07
2023-04-25T02:14:38.699Z,1.80
2023-04-25T02:17:07.305Z,2.00
2023-04-25T02:19:35.704Z,1.70
2023-04-25T02:22:04.066Z,1.87
2023-04-25T02:24:32.900Z,1.67
2023-04-25T02:27:01.274Z,2.57
2023-04-25T02:29:29.659Z,1.93
2023-04-25T02:31:59.554Z,2.20
2023-04-25T02:34:27.963Z,1.73
2023-04-25T02:36:56.263Z,1.80
2023-04-25T02:39:26.190Z,2.00
2023-04-25T02:41:55.121Z,2.13
2023-04-25T02:44:23.449Z,2.30
2023-04-25T02:46:51.962Z,1.93
2023-04-25T02:49:21.680Z,2.20
2023-04-25T02:51:50.114Z,2.23
2023-04-25T02:54:18.558Z,2.30
2023-04-25T02:56:47.026Z,1.97
2023-04-25T02:59:15.363Z,1.70
2023-04-25T03:01:43.756Z,2.10
2023-04-25T03:04:12.247Z,2.10
2023-04-25T03:06:42.160Z,2.10
2023-04-25T03:09:10.567Z,1.97
2023-04-25T03:11:39.964Z,1.87
2023-04-25T03:14:08.439Z,2.30
2023-04-25T03:16:36.862Z,2.13
2023-04-25T03:19:05.449Z,2.30
2023-04-25T03:21:34.245Z,2.90
2023-04-25T03:24:04.936Z,2.17
2023-04-25T03:26:33.459Z,2.40
2023-04-25T03:29:01.811Z,2.87
2023-04-25T03:31:30.181Z,2.40
2023-04-25T03:33:58.709Z,4.83
2023-04-25T03:36:27.078Z,2.67
2023-04-25T03:38:55.504Z,2.83
2023-04-25T03:41:26.038Z,2.10
2023-04-25T03:43:54.561Z,1.80
2023-04-25T03:46:25.364Z,1.47
2023-04-25T03:48:53.879Z,2.23
2023-04-25T03:51:22.235Z,1.70
2023-04-25T03:53:51.033Z,2.20
2023-04-25T03:56:19.682Z,2.07
2023-04-25T03:58:49.551Z,1.70
2023-04-25T04:01:17.928Z,1.90
2023-04-25T04:03:46.744Z,2.17
2023-04-25T04:06:15.940Z,1.80
2023-04-25T04:08:44.293Z,1.80
2023-04-25T04:11:12.770Z,1.83
2023-04-25T04:13:41.204Z,1.60
2023-04-25T04:16:11.073Z,1.83
2023-04-25T04:18:39.506Z,2.00
2023-04-25T04:21:07.884Z,1.40
2023-04-25T04:23:38.897Z,1.80
2023-04-25T04:26:08.251Z,1.77
2023-04-25T04:28:37.085Z,1.77
2023-04-25T04:31:05.613Z,1.70
2023-04-25T04:33:35.704Z,1.70
2023-04-25T04:36:04.089Z,1.83
2023-04-25T04:38:33.228Z,2.50
2023-04-25T04:41:01.689Z,1.73
2023-04-25T04:43:30.754Z,1.60
2023-04-25T04:45:59.079Z,1.87
2023-04-25T04:48:27.818Z,1.93
2023-04-25T04:50:57.630Z,2.10
2023-04-25T04:53:26.148Z,2.23
2023-04-25T04:55:54.469Z,2.57
2023-04-25T04:58:22.789Z,1.97
2023-04-25T05:00:51.501Z,1.93
2023-04-25T05:03:20.241Z,1.97
2023-04-25T05:05:48.819Z,2.20
2023-04-25T05:08:18.611Z,2.30
2023-04-25T05:10:47.040Z,2.33
2023-04-25T05:13:15.466Z,1.77
2023-04-25T05:15:43.802Z,1.90
2023-04-25T05:18:12.520Z,2.10
2023-04-25T05:20:40.837Z,1.90
2023-04-25T05:23:09.110Z,1.60
2023-04-25T05:25:39.156Z,1.90
2023-04-25T05:28:07.964Z,2.30
2023-04-25T05:30:36.916Z,2.00
2023-04-25T05:33:05.365Z,2.10
2023-04-25T05:35:34.236Z,1.87
2023-04-25T05:38:02.661Z,2.23
2023-04-25T05:40:31.012Z,2.10
2023-04-25T05:43:00.897Z,1.83
2023-04-25T05:45:29.252Z,2.00
2023-04-25T05:47:57.698Z,2.10
2023-04-25T05:50:26.289Z,2.10
2023-04-25T05:52:54.603Z,2.20
2023-04-25T05:55:22.933Z,1.40
2023-04-25T05:57:51.684Z,1.70
2023-04-25T06:00:23.750Z,1.67
2023-04-25T06:02:52.282Z,1.97
2023-04-25T06:05:21.152Z,1.80
2023-04-25T06:07:49.704Z,1.77
2023-04-25T06:10:18.084Z,1.73
2023-04-25T06:12:46.507Z,2.30
2023-04-25T06:15:27.338Z,2.20
2023-04-25T06:17:58.854Z,1.90
2023-04-25T06:20:27.320Z,1.93
2023-04-25T06:22:55.848Z,2.30
2023-04-25T06:25:24.241Z,1.97
2023-04-25T06:27:52.559Z,2.00
2023-04-25T06:30:23.620Z,2.63
2023-04-25T06:32:52.001Z,1.80
2023-04-25T06:35:21.938Z,2.30
2023-04-25T06:37:50.403Z,1.90
2023-04-25T06:40:19.376Z,2.27
2023-04-25T06:42:47.800Z,2.30
2023-04-25T06:45:16.171Z,2.20
2023-04-25T06:47:44.523Z,2.00
2023-04-25T06:50:13.130Z,1.70
2023-04-25T06:52:43.012Z,2.10
2023-04-25T06:55:11.829Z,2.73
2023-04-25T06:57:40.264Z,2.20
2023-04-25T07:00:11.134Z,2.00
2023-04-25T07:02:39.659Z,2.33
2023-04-25T07:05:08.472Z,2.27
2023-04-25T07:07:36.811Z,2.33
2023-04-25T07:10:07.587Z,2.30
2023-04-25T07:12:35.966Z,2.53
2023-04-25T07:15:06.939Z,2.23
2023-04-25T07:17:35.897Z,2.20
2023-04-25T07:20:04.893Z,2.50
2023-04-25T07:22:33.322Z,2.27
2023-04-25T07:25:01.693Z,2.53
2023-04-25T07:27:31.584Z,2.50
2023-04-25T07:30:00.202Z,3.23
2023-04-25T07:32:29.022Z,2.60
2023-04-25T07:34:57.855Z,2.60
2023-04-25T07:37:26.464Z,3.20
2023-04-25T07:39:54.792Z,2.37
2023-04-25T07:42:23.268Z,2.50
2023-04-25T07:44:53.037Z,2.17
2023-04-25T07:47:21.522Z,1.93
2023-04-25T07:49:49.992Z,2.10
2023-04-25T07:52:18.320Z,1.90
2023-04-25T07:54:46.749Z,2.80
2023-04-25T07:57:15.231Z,2.30
2023-04-25T07:59:43.587Z,2.00
2023-04-25T08:02:16.806Z,2.10
2023-04-25T08:04:45.706Z,1.70
2023-04-25T08:07:14.383Z,1.70
2023-04-25T08:09:42.806Z,2.03
2023-04-25T08:12:11.192Z,2.17
2023-04-25T08:14:40.878Z,2.00
2023-04-25T08:17:09.379Z,2.00
2023-04-25T08:19:39.255Z,1.87
2023-04-25T08:22:07.570Z,1.97
2023-04-25T08:24:37.981Z,1.70
2023-04-25T08:27:08.701Z,1.97
2023-04-25T08:29:37.364Z,1.80
2023-04-25T08:32:05.897Z,1.83
2023-04-25T08:34:34.225Z,1.83
2023-04-25T08:37:05.380Z,2.40
2023-04-25T08:39:34.014Z,2.00
2023-04-25T08:42:04.758Z,4.30
2023-04-25T08:44:33.474Z,1.77
2023-04-25T08:47:02.437Z,1.90
2023-04-25T08:49:31.105Z,1.80
2023-04-25T08:52:01.522Z,1.60
2023-04-25T08:54:35.635Z,1.80
2023-04-25T08:57:06.324Z,1.80
2023-04-25T08:59:37.854Z,2.10
2023-04-25T09:02:07.732Z,1.80
2023-04-25T09:04:36.214Z,1.90
2023-04-25T09:07:04.703Z,1.40
2023-04-25T09:09:34.501Z,1.70
2023-04-25T09:12:03.500Z,2.37
2023-04-25T09:14:31.831Z,1.97
2023-04-25T09:17:01.469Z,1.63
2023-04-25T09:22:03.142Z,2.30
2023-04-25T09:24:44.515Z,1.70
2023-04-25T09:27:13.798Z,1.63
2023-04-25T09:29:43.164Z,1.53
2023-04-25T09:32:16.172Z,1.80
2023-04-25T09:34:45.560Z,1.70
2023-04-25T09:37:14.338Z,2.10
2023-04-25T09:39:47.244Z,2.20
2023-04-25T09:42:16.197Z,1.97
2023-04-25T09:44:47.896Z,1.90
2023-04-25T09:47:19.016Z,1.63
2023-04-25T09:49:47.448Z,2.10
2023-04-25T09:52:19.249Z,1.60
2023-04-25T09:54:49.161Z,1.57
2023-04-25T09:57:18.022Z,1.97
2023-04-25T09:59:46.937Z,2.33
2023-04-25T10:02:15.646Z,2.20
2023-04-25T10:04:44.805Z,1.73
2023-04-25T10:07:13.863Z,1.50
2023-04-25T10:09:43.130Z,1.80
2023-04-25T10:12:13.339Z,1.53
2023-04-25T10:14:42.608Z,1.80
2023-04-25T10:17:12.832Z,1.83
2023-04-25T10:19:42.164Z,1.63
2023-04-25T10:22:11.485Z,1.60
2023-04-25T10:24:40.651Z,1.90
2023-04-25T10:27:09.218Z,1.47
2023-04-25T10:29:39.119Z,1.90
2023-04-25T10:32:07.826Z,1.53
2023-04-25T10:34:48.287Z,1.60
2023-04-25T10:37:16.851Z,1.77
2023-04-25T10:39:45.950Z,1.57
2023-04-25T10:42:14.461Z,1.53
2023-04-25T10:45:03.831Z,1.70
2023-04-25T10:47:38.177Z,1.47
2023-04-25T10:50:10.729Z,1.50
2023-04-25T10:52:41.766Z,1.70
2023-04-25T10:55:10.750Z,1.67
2023-04-25T10:57:39.882Z,1.57
2023-04-25T11:00:12.129Z,1.30
2023-04-25T11:02:41.261Z,1.47
2023-04-25T11:05:10.254Z,1.63
2023-04-25T11:07:42.267Z,1.57
2023-04-25T11:10:11.612Z,1.60
2023-04-25T11:12:39.855Z,1.83
2023-04-25T11:15:10.527Z,2.30
2023-04-25T11:17:40.525Z,1.90
2023-04-25T11:20:12.283Z,1.70
2023-04-25T11:22:42.823Z,1.40
2023-04-25T11:25:12.143Z,1.30
2023-04-25T11:27:41.535Z,1.60
2023-04-25T11:30:15.944Z,1.60
2023-04-25T11:32:44.358Z,1.83
2023-04-25T11:35:12.853Z,1.60
2023-04-25T11:37:41.824Z,1.70
2023-04-25T11:40:10.987Z,1.80
2023-04-25T11:42:40.411Z,1.67
2023-04-25T11:45:10.643Z,2.13
2023-04-25T11:47:40.784Z,2.03
2023-04-25T11:50:10.010Z,1.80
2023-04-25T11:52:42.104Z,2.80
2023-04-25T11:55:11.799Z,2.60
2023-04-25T11:57:40.742Z,2.57
2023-04-25T12:00:12.154Z,3.00
2023-04-25T12:02:43.051Z,2.57
2023-04-25T12:05:30.411Z,1.90
2023-04-25T12:08:00.535Z,1.83
2023-04-25T12:10:28.893Z,2.00
2023-04-25T12:12:59.363Z,1.60
2023-04-25T12:15:28.107Z,1.70
2023-04-25T12:17:58.260Z,1.73
2023-04-25T12:20:27.531Z,1.60
2023-04-25T12:22:56.636Z,1.77
2023-04-25T12:25:38.001Z,1.50
2023-04-25T12:28:13.871Z,1.50
2023-04-25T12:30:57.430Z,1.27
2023-04-25T12:33:27.912Z,1.40
2023-04-25T12:35:57.049Z,1.20
2023-04-25T12:38:26.215Z,1.40
2023-04-25T12:40:54.594Z,1.30
2023-04-25T12:43:23.120Z,1.00
2023-04-25T12:45:52.202Z,1.47
2023-04-25T12:48:20.750Z,1.20
2023-04-25T12:50:51.626Z,0.80
2023-04-25T12:53:20.040Z,0.77
2023-04-25T12:55:48.519Z,1.00
2023-04-25T12:58:16.981Z,0.90
2023-04-25T13:00:45.348Z,1.00
2023-04-25T13:03:14.144Z,1.17
2023-04-25T13:05:42.779Z,0.90
2023-04-25T13:08:12.536Z,0.70
2023-04-25T13:10:41.221Z,0.70
2023-04-25T13:13:09.555Z,0.67
2023-04-25T13:15:37.940Z,0.90
2023-04-25T13:18:06.890Z,0.83
2023-04-25T13:20:35.429Z,0.90
2023-04-25T13:23:03.868Z,0.97
2023-04-25T13:25:34.019Z,0.87
2023-04-25T13:28:02.490Z,0.87
2023-04-25T13:30:30.876Z,0.83
2023-04-25T13:33:04.227Z,1.13
2023-04-25T13:35:33.376Z,1.07
2023-04-25T13:38:01.891Z,0.70
2023-04-25T13:40:30.427Z,0.87
2023-04-25T13:43:00.195Z,0.87
2023-04-25T13:45:29.021Z,0.90
2023-04-25T13:47:58.537Z,0.80
2023-04-25T13:50:27.255Z,0.97
2023-04-25T13:52:55.628Z,0.90
2023-04-25T13:55:24.158Z,0.93
2023-04-25T13:57:52.506Z,1.17
2023-04-25T14:00:22.830Z,1.50
2023-04-25T14:02:51.510Z,0.90
2023-04-25T14:05:20.057Z,1.10
2023-04-25T14:07:48.485Z,1.00
2023-04-25T14:10:16.964Z,0.90
2023-04-25T14:12:45.387Z,0.80
2023-04-25T14:15:13.669Z,0.90
2023-04-25T14:17:43.515Z,0.73
2023-04-25T14:20:12.620Z,0.80
2023-04-25T14:22:44.123Z,0.67
2023-04-25T14:25:12.912Z,1.13
2023-04-25T14:27:41.841Z,0.93
2023-04-25T14:30:12.959Z,1.00
2023-04-25T14:32:42.875Z,0.90
2023-04-25T14:35:11.650Z,1.00
2023-04-25T14:37:40.419Z,1.17
2023-04-25T14:40:11.747Z,1.00
2023-04-25T14:42:40.327Z,0.90
2023-04-25T14:45:09.416Z,1.10
2023-04-25T14:47:38.031Z,1.20
2023-04-25T14:50:09.626Z,0.93
2023-04-25T14:52:38.118Z,0.97
2023-04-25T14:55:07.420Z,0.80
2023-04-25T14:57:36.126Z,0.80
2023-04-25T15:00:09.524Z,0.80
2023-04-25T15:02:38.074Z,0.97
2023-04-25T15:05:09.588Z,1.00
2023-04-25T15:07:37.986Z,1.00
2023-04-25T15:10:12.059Z,0.90
2023-04-25T15:12:40.580Z,1.33
2023-04-25T15:15:14.248Z,1.00
2023-04-25T15:17:49.412Z,0.90
2023-04-25T15:20:24.368Z,0.80
2023-04-25T15:22:52.919Z,1.00
2023-04-25T15:25:21.315Z,0.90
2023-04-25T15:27:52.751Z,1.10
2023-04-25T15:30:21.481Z,1.40
2023-04-25T15:32:50.291Z,1.10
2023-04-25T15:35:18.844Z,1.50
2023-04-25T15:37:48.528Z,1.07
2023-04-25T15:40:17.911Z,1.20
2023-04-25T15:42:47.989Z,1.33
2023-04-25T15:45:18.168Z,0.90
2023-04-25T15:47:47.019Z,0.90
2023-04-25T15:50:16.563Z,0.87
2023-04-25T15:52:45.209Z,0.80
2023-04-25T15:55:14.963Z,1.10
2023-04-25T15:57:43.349Z,1.53
2023-04-25T16:00:13.140Z,1.80
2023-04-25T16:02:42.204Z,1.20
2023-04-25T16:05:12.964Z,1.50
2023-04-25T16:07:42.045Z,1.63
2023-04-25T16:10:11.120Z,1.10
2023-04-25T16:12:41.459Z,1.80
2023-04-25T16:15:10.474Z,1.53
2023-04-25T16:17:38.864Z,1.73
2023-04-25T16:20:10.448Z,1.90
2023-04-25T16:22:39.070Z,1.80
2023-04-25T16:25:09.173Z,1.10
2023-04-25T16:27:39.606Z,1.20
2023-04-25T16:30:10.607Z,1.30
2023-04-25T16:32:39.746Z,1.10
2023-04-25T16:35:08.935Z,1.30
2023-04-25T16:37:37.316Z,1.40
2023-04-25T16:40:06.440Z,1.10
2023-04-25T16:42:34.749Z,1.43
2023-04-25T16:45:03.630Z,1.10
2023-04-25T16:47:33.577Z,1.30
2023-04-25T16:50:03.002Z,1.60
2023-04-25T16:52:34.466Z,1.47
2023-04-25T16:55:02.743Z,1.77
2023-04-25T16:57:31.034Z,1.50
2023-04-25T16:59:59.279Z,1.73
2023-04-25T17:02:27.740Z,1.43
2023-04-25T17:04:57.631Z,1.60
2023-04-25T17:07:28.046Z,1.50
2023-04-25T17:09:58.882Z,1.20
2023-04-25T17:12:27.268Z,1.10
2023-04-25T17:14:55.665Z,1.20
2023-04-25T17:17:24.020Z,1.40
2023-04-25T17:19:52.415Z,1.80
2023-04-25T17:22:22.780Z,2.30
2023-04-25T17:24:51.298Z,6.67
2023-04-25T17:27:19.807Z,3.40
2023-04-25T17:29:58.154Z,4.70
2023-04-25T17:32:26.457Z,4.20
2023-04-25T17:34:55.671Z,2.27
2023-04-25T17:37:27.704Z,1.83
2023-04-25T17:39:56.239Z,2.07
2023-04-25T17:42:24.665Z,1.50
2023-04-25T17:44:54.824Z,2.30
2023-04-25T17:47:23.229Z,2.07
2023-04-25T17:49:56.650Z,1.73
2023-04-25T17:52:27.315Z,2.23
2023-04-25T17:54:58.581Z,2.50
2023-04-25T17:57:27.298Z,2.90
2023-04-25T17:59:56.512Z,3.73
2023-04-25T18:02:25.354Z,2.30
2023-04-25T18:04:54.123Z,3.80
2023-04-25T18:07:22.542Z,3.23
2023-04-25T18:09:52.418Z,2.53
2023-04-25T18:12:20.874Z,2.10
2023-04-25T18:14:49.484Z,2.60
2023-04-25T18:17:25.056Z,2.67
2023-04-25T18:19:53.392Z,4.07
2023-04-25T18:22:21.804Z,3.17
2023-04-25T18:24:57.274Z,2.20
2023-04-25T18:27:27.207Z,1.80
2023-04-25T18:29:55.526Z,2.20
2023-04-25T18:32:23.990Z,2.03
2023-04-25T18:34:52.447Z,2.00
2023-04-25T18:37:21.082Z,2.10
2023-04-25T18:39:50.201Z,2.30
2023-04-25T18:42:18.536Z,2.23
2023-04-25T18:44:48.374Z,2.60
2023-04-25T18:47:16.804Z,2.17
2023-04-25T18:49:45.353Z,2.00
2023-04-25T18:52:16.057Z,4.30
2023-04-25T18:54:44.759Z,2.27
2023-04-25T18:57:15.062Z,2.03
2023-04-25T18:59:45.612Z,2.33
2023-04-25T19:02:16.125Z,2.03
2023-04-25T19:04:44.760Z,2.50
2023-04-25T19:07:14.850Z,2.37
2023-04-25T19:09:43.357Z,2.33
2023-04-25T19:12:11.838Z,2.77
2023-04-25T19:14:40.212Z,1.83
2023-04-25T19:17:08.862Z,2.30
2023-04-25T19:19:38.634Z,2.47
2023-04-25T19:22:07.517Z,1.90
2023-04-25T19:24:35.890Z,2.27
2023-04-25T19:27:04.739Z,2.07
2023-04-25T19:29:34.100Z,1.90
2023-04-25T19:32:03.519Z,2.20
2023-04-25T19:34:31.930Z,1.90
2023-04-25T19:37:01.756Z,2.27
2023-04-25T19:39:30.058Z,1.90
2023-04-25T19:41:59.304Z,1.80
2023-04-25T19:44:28.107Z,1.80
2023-04-25T19:46:56.455Z,1.97
2023-04-25T19:49:25.022Z,2.30
2023-04-25T19:51:53.388Z,1.83
2023-04-25T19:54:23.459Z,2.20
2023-04-25T19:56:51.890Z,1.70
2023-04-25T19:59:20.238Z,2.10
2023-04-25T20:01:49.001Z,2.00
2023-04-25T20:04:18.281Z,1.97
2023-04-25T20:06:46.536Z,2.53
2023-04-25T20:09:16.405Z,2.10
2023-04-25T20:11:46.301Z,2.00
2023-04-25T20:14:14.687Z,2.20
2023-04-25T20:16:43.215Z,2.10
2023-04-25T20:19:11.651Z,3.03
2023-04-25T20:21:40.078Z,3.47
2023-04-25T20:24:08.635Z,2.50
2023-04-25T20:26:37.551Z,3.43
2023-04-25T20:29:07.821Z,3.17
2023-04-25T20:31:36.966Z,3.23
2023-04-25T20:34:05.657Z,3.07
2023-04-25T20:36:34.607Z,3.00
2023-04-25T20:39:03.078Z,3.33
2023-04-25T20:41:32.201Z,3.70
2023-04-25T20:44:01.055Z,3.83
2023-04-25T20:46:31.134Z,2.90
2023-04-25T20:49:01.116Z,2.70
2023-04-25T20:51:30.226Z,2.73
2023-04-25T20:53:58.844Z,2.93
2023-04-25T20:56:27.188Z,2.97
2023-04-25T20:58:56.786Z,2.30
2023-04-25T21:01:25.407Z,2.70
2023-04-25T21:03:55.575Z,2.47
2023-04-25T21:06:24.144Z,4.50
2023-04-25T21:08:53.006Z,4.77
2023-04-25T21:11:23.531Z,2.40
2023-04-25T21:13:52.462Z,2.73
2023-04-25T21:16:21.328Z,2.50
2023-04-25T21:18:50.158Z,2.10
2023-04-25T21:21:20.169Z,2.50
2023-04-25T21:23:48.622Z,2.23
2023-04-25T21:26:16.972Z,2.50
2023-04-25T21:28:46.896Z,2.00
2023-04-25T21:31:15.426Z,2.43
2023-04-25T21:33:43.904Z,2.10
2023-04-25T21:36:12.321Z,2.47
2023-04-25T21:38:42.092Z,2.20
2023-04-25T21:41:10.466Z,2.93
2023-04-25T21:43:38.788Z,4.23
2023-04-25T21:46:22.341Z,2.60
2023-04-25T21:48:52.270Z,2.60
2023-04-25T21:51:20.831Z,2.30
2023-04-25T21:53:50.658Z,2.20
2023-04-25T21:56:18.925Z,2.40
2023-04-25T21:58:47.431Z,2.73
2023-04-25T22:01:16.346Z,2.10
2023-04-25T22:03:45.003Z,2.20
2023-04-25T22:06:13.638Z,1.83
2023-04-25T22:08:43.018Z,1.97
2023-04-25T22:11:13.761Z,1.80
2023-04-25T22:13:42.170Z,1.97
2023-04-25T22:16:12.211Z,2.07
2023-04-25T22:18:42.204Z,2.00
2023-04-25T22:21:10.806Z,1.43
2023-04-25T22:23:39.113Z,2.23
2023-04-25T22:26:07.804Z,2.17
2023-04-25T22:28:37.593Z,1.60
2023-04-25T22:31:06.184Z,1.97
2023-04-25T22:33:34.627Z,1.53
2023-04-25T22:36:03.203Z,1.90
2023-04-25T22:38:32.042Z,2.03
2023-04-25T22:41:00.504Z,2.17
2023-04-25T22:43:29.592Z,1.90
2023-04-25T22:45:59.933Z,2.00
2023-04-25T22:48:28.437Z,2.27
2023-04-25T22:51:03.515Z,2.60
2023-04-25T22:53:34.209Z,2.30
2023-04-25T22:56:03.014Z,2.60
2023-04-25T22:58:31.415Z,2.67
2023-04-25T23:01:01.976Z,2.77
2023-04-25T23:03:32.597Z,3.17
2023-04-25T23:06:01.415Z,2.90
2023-04-25T23:08:30.013Z,3.60
2023-04-25T23:10:58.586Z,2.97
2023-04-25T23:13:26.965Z,2.93
2023-04-25T23:15:55.354Z,3.00
2023-04-25T23:18:25.104Z,2.70
2023-04-25T23:20:53.547Z,2.90
2023-04-25T23:23:22.377Z,2.87
2023-04-25T23:25:50.754Z,2.50
2023-04-25T23:28:19.136Z,2.77
2023-04-25T23:30:47.593Z,2.90
2023-04-25T23:33:15.992Z,2.70
2023-04-25T23:35:46.418Z,2.03
2023-04-25T23:38:16.330Z,2.80
2023-04-25T23:40:44.673Z,2.60
2023-04-25T23:43:13.418Z,2.40
2023-04-25T23:45:43.849Z,2.47
2023-04-25T23:48:12.409Z,2.77
2023-04-25T23:50:41.629Z,2.57
2023-04-25T23:53:11.830Z,2.83
2023-04-25T23:55:40.719Z,2.60
2023-04-25T23:58:09.257Z,2.70
